sensor_id;sensor_type;location;lat;lon;timestamp;temperature;humidity
16118;DHT22;8163;50.118;5.342;2023-02-01T00:00:33;4.90;99.90
16118;DHT22;8163;50.118;5.342;2023-02-01T00:03:00;4.90;99.90
16118;DHT22;8163;50.118;5.342;2023-02-01T00:05:27;4.90;99.90
16118;DHT22;8163;50.118;5.342;2023-02-01T00:07:56;4.90;99.90
16118;DHT22;8163;50.118;5.342;2023-02-01T00:10:23;4.90;99.90
16118;DHT22;8163;50.118;5.342;2023-02-01T00:12:50;4.90;99.90
16118;DHT22;8163;50.118;5.342;2023-02-01T00:15:17;5.00;99.90
16118;DHT22;8163;50.118;5.342;2023-02-01T00:17:45;5.00;99.90
16118;DHT22;8163;50.118;5.342;2023-02-01T00:20:12;5.00;99.90
16118;DHT22;8163;50.118;5.342;2023-02-01T00:25:06;5.00;99.90
16118;DHT22;8163;50.118;5.342;2023-02-01T00:27:33;5.00;99.90
16118;DHT22;8163;50.118;5.342;2023-02-01T00:30:00;5.00;99.90
16118;DHT22;8163;50.118;5.342;2023-02-01T00:32:28;5.00;99.90
16118;DHT22;8163;50.118;5.342;2023-02-01T00:34:58;5.00;99.90
16118;DHT22;8163;50.118;5.342;2023-02-01T00:37:25;5.00;99.90
16118;DHT22;8163;50.118;5.342;2023-02-01T00:39:52;5.10;99.90
16118;DHT22;8163;50.118;5.342;2023-02-01T00:42:22;5.10;99.90
16118;DHT22;8163;50.118;5.342;2023-02-01T00:44:49;5.10;99.90
16118;DHT22;8163;50.118;5.342;2023-02-01T00:47:16;5.10;99.90
16118;DHT22;8163;50.118;5.342;2023-02-01T00:49:45;5.10;99.90
16118;DHT22;8163;50.118;5.342;2023-02-01T00:52:12;5.10;99.90
16118;DHT22;8163;50.118;5.342;2023-02-01T00:54:39;5.10;99.90
16118;DHT22;8163;50.118;5.342;2023-02-01T00:57:06;5.10;99.90
16118;DHT22;8163;50.118;5.342;2023-02-01T00:59:34;5.10;99.90
16118;DHT22;8163;50.118;5.342;2023-02-01T01:02:01;5.10;99.90
16118;DHT22;8163;50.118;5.342;2023-02-01T01:04:28;5.10;99.90
16118;DHT22;8163;50.118;5.342;2023-02-01T01:06:55;5.10;99.90
16118;DHT22;8163;50.118;5.342;2023-02-01T01:09:22;5.10;99.90
16118;DHT22;8163;50.118;5.342;2023-02-01T01:11:49;5.10;99.90
16118;DHT22;8163;50.118;5.342;2023-02-01T01:14:18;5.10;99.90
16118;DHT22;8163;50.118;5.342;2023-02-01T01:16:46;5.10;99.90
16118;DHT22;8163;50.118;5.342;2023-02-01T01:19:17;5.20;99.90
16118;DHT22;8163;50.118;5.342;2023-02-01T01:21:44;5.10;99.90
16118;DHT22;8163;50.118;5.342;2023-02-01T01:24:10;5.10;99.90
16118;DHT22;8163;50.118;5.342;2023-02-01T01:26:38;5.10;99.90
16118;DHT22;8163;50.118;5.342;2023-02-01T01:29:05;5.10;99.90
16118;DHT22;8163;50.118;5.342;2023-02-01T01:31:32;5.20;99.90
16118;DHT22;8163;50.118;5.342;2023-02-01T01:34:01;5.10;99.90
16118;DHT22;8163;50.118;5.342;2023-02-01T01:36:28;5.20;99.90
16118;DHT22;8163;50.118;5.342;2023-02-01T01:38:55;5.10;99.90
16118;DHT22;8163;50.118;5.342;2023-02-01T01:41:24;5.10;99.90
16118;DHT22;8163;50.118;5.342;2023-02-01T01:43:55;5.10;99.90
16118;DHT22;8163;50.118;5.342;2023-02-01T01:46:24;5.10;99.90
16118;DHT22;8163;50.118;5.342;2023-02-01T01:48:58;5.20;99.90
16118;DHT22;8163;50.118;5.342;2023-02-01T01:51:29;5.10;99.90
16118;DHT22;8163;50.118;5.342;2023-02-01T01:54:01;5.20;99.90
16118;DHT22;8163;50.118;5.342;2023-02-01T01:56:30;5.20;99.90
16118;DHT22;8163;50.118;5.342;2023-02-01T01:58:59;5.20;99.90
16118;DHT22;8163;50.118;5.342;2023-02-01T02:01:29;5.10;99.90
16118;DHT22;8163;50.118;5.342;2023-02-01T02:03:57;5.10;99.90
16118;DHT22;8163;50.118;5.342;2023-02-01T02:06:37;5.20;99.90
16118;DHT22;8163;50.118;5.342;2023-02-01T02:09:05;5.10;99.90
16118;DHT22;8163;50.118;5.342;2023-02-01T02:11:33;5.20;99.90
16118;DHT22;8163;50.118;5.342;2023-02-01T02:14:00;5.10;99.90
16118;DHT22;8163;50.118;5.342;2023-02-01T02:16:43;5.10;99.90
16118;DHT22;8163;50.118;5.342;2023-02-01T02:19:42;5.10;99.90
16118;DHT22;8163;50.118;5.342;2023-02-01T02:22:58;5.10;99.90
16118;DHT22;8163;50.118;5.342;2023-02-01T02:26:16;5.10;99.90
16118;DHT22;8163;50.118;5.342;2023-02-01T02:32:10;5.10;99.90
16118;DHT22;8163;50.118;5.342;2023-02-01T02:34:45;5.10;99.90
16118;DHT22;8163;50.118;5.342;2023-02-01T02:37:17;5.00;99.90
16118;DHT22;8163;50.118;5.342;2023-02-01T02:39:54;5.00;99.90
16118;DHT22;8163;50.118;5.342;2023-02-01T02:42:29;5.00;99.90
16118;DHT22;8163;50.118;5.342;2023-02-01T02:45:20;5.00;99.90
16118;DHT22;8163;50.118;5.342;2023-02-01T02:48:11;5.00;99.90
16118;DHT22;8163;50.118;5.342;2023-02-01T02:50:44;5.00;99.90
16118;DHT22;8163;50.118;5.342;2023-02-01T02:53:43;5.00;99.90
16118;DHT22;8163;50.118;5.342;2023-02-01T02:56:31;5.00;99.90
16118;DHT22;8163;50.118;5.342;2023-02-01T02:59:19;5.00;99.90
16118;DHT22;8163;50.118;5.342;2023-02-01T03:02:05;5.00;99.90
16118;DHT22;8163;50.118;5.342;2023-02-01T03:04:52;5.00;99.90
16118;DHT22;8163;50.118;5.342;2023-02-01T03:07:55;5.00;99.90
16118;DHT22;8163;50.118;5.342;2023-02-01T03:10:28;5.00;99.90
16118;DHT22;8163;50.118;5.342;2023-02-01T03:13:03;4.90;99.90
16118;DHT22;8163;50.118;5.342;2023-02-01T03:15:35;4.90;99.90
16118;DHT22;8163;50.118;5.342;2023-02-01T03:18:07;4.90;99.90
16118;DHT22;8163;50.118;5.342;2023-02-01T03:20:40;4.90;99.90
16118;DHT22;8163;50.118;5.342;2023-02-01T03:23:10;5.00;99.90
16118;DHT22;8163;50.118;5.342;2023-02-01T03:25:39;4.90;99.90
16118;DHT22;8163;50.118;5.342;2023-02-01T03:28:08;4.90;99.90
16118;DHT22;8163;50.118;5.342;2023-02-01T03:30:38;4.90;99.90
16118;DHT22;8163;50.118;5.342;2023-02-01T03:33:09;4.90;99.90
16118;DHT22;8163;50.118;5.342;2023-02-01T03:35:43;4.90;99.90
16118;DHT22;8163;50.118;5.342;2023-02-01T03:38:18;4.90;99.90
16118;DHT22;8163;50.118;5.342;2023-02-01T03:40:50;4.90;99.90
16118;DHT22;8163;50.118;5.342;2023-02-01T03:43:19;4.90;99.90
16118;DHT22;8163;50.118;5.342;2023-02-01T03:45:50;4.90;99.90
16118;DHT22;8163;50.118;5.342;2023-02-01T03:48:20;4.90;99.90
16118;DHT22;8163;50.118;5.342;2023-02-01T03:50:52;4.80;99.90
16118;DHT22;8163;50.118;5.342;2023-02-01T03:53:22;4.80;99.90
16118;DHT22;8163;50.118;5.342;2023-02-01T03:55:51;4.90;99.90
16118;DHT22;8163;50.118;5.342;2023-02-01T03:58:21;4.90;99.90
16118;DHT22;8163;50.118;5.342;2023-02-01T04:00:51;4.80;99.90
16118;DHT22;8163;50.118;5.342;2023-02-01T04:03:20;4.80;99.90
16118;DHT22;8163;50.118;5.342;2023-02-01T04:05:48;4.80;99.90
16118;DHT22;8163;50.118;5.342;2023-02-01T04:08:15;4.80;99.90
16118;DHT22;8163;50.118;5.342;2023-02-01T04:10:43;4.80;99.90
16118;DHT22;8163;50.118;5.342;2023-02-01T04:13:10;4.80;99.90
16118;DHT22;8163;50.118;5.342;2023-02-01T04:15:37;4.80;99.90
16118;DHT22;8163;50.118;5.342;2023-02-01T04:18:04;4.80;99.90
16118;DHT22;8163;50.118;5.342;2023-02-01T04:20:32;4.80;99.90
16118;DHT22;8163;50.118;5.342;2023-02-01T04:22:58;4.80;99.90
16118;DHT22;8163;50.118;5.342;2023-02-01T04:25:28;4.80;99.90
16118;DHT22;8163;50.118;5.342;2023-02-01T04:27:57;4.80;99.90
16118;DHT22;8163;50.118;5.342;2023-02-01T04:30:25;4.80;99.90
16118;DHT22;8163;50.118;5.342;2023-02-01T04:32:52;4.70;99.90
16118;DHT22;8163;50.118;5.342;2023-02-01T04:35:19;4.70;99.90
16118;DHT22;8163;50.118;5.342;2023-02-01T04:37:46;4.70;99.90
16118;DHT22;8163;50.118;5.342;2023-02-01T04:40:13;4.70;99.90
16118;DHT22;8163;50.118;5.342;2023-02-01T04:42:40;4.70;99.90
16118;DHT22;8163;50.118;5.342;2023-02-01T04:45:09;4.70;99.90
16118;DHT22;8163;50.118;5.342;2023-02-01T04:47:36;4.70;99.90
16118;DHT22;8163;50.118;5.342;2023-02-01T04:50:05;4.60;99.90
16118;DHT22;8163;50.118;5.342;2023-02-01T04:52:33;4.60;99.90
16118;DHT22;8163;50.118;5.342;2023-02-01T04:55:00;4.70;99.90
16118;DHT22;8163;50.118;5.342;2023-02-01T04:57:28;4.70;99.90
16118;DHT22;8163;50.118;5.342;2023-02-01T04:59:55;4.60;99.90
16118;DHT22;8163;50.118;5.342;2023-02-01T05:02:23;4.60;99.90
16118;DHT22;8163;50.118;5.342;2023-02-01T05:04:50;4.60;99.90
16118;DHT22;8163;50.118;5.342;2023-02-01T05:07:17;4.60;99.90
16118;DHT22;8163;50.118;5.342;2023-02-01T05:09:47;4.50;99.90
16118;DHT22;8163;50.118;5.342;2023-02-01T05:12:16;4.50;99.90
16118;DHT22;8163;50.118;5.342;2023-02-01T05:15:03;4.50;99.90
16118;DHT22;8163;50.118;5.342;2023-02-01T05:17:31;4.50;99.90
16118;DHT22;8163;50.118;5.342;2023-02-01T05:19:58;4.50;99.90
16118;DHT22;8163;50.118;5.342;2023-02-01T05:22:25;4.50;99.90
16118;DHT22;8163;50.118;5.342;2023-02-01T05:24:52;4.50;99.90
16118;DHT22;8163;50.118;5.342;2023-02-01T05:27:19;4.50;99.90
16118;DHT22;8163;50.118;5.342;2023-02-01T05:29:46;4.50;99.90
16118;DHT22;8163;50.118;5.342;2023-02-01T05:32:13;4.50;99.90
16118;DHT22;8163;50.118;5.342;2023-02-01T05:34:44;4.50;99.90
16118;DHT22;8163;50.118;5.342;2023-02-01T05:37:11;4.40;99.90
16118;DHT22;8163;50.118;5.342;2023-02-01T05:39:38;4.40;99.90
16118;DHT22;8163;50.118;5.342;2023-02-01T05:42:05;4.50;99.90
16118;DHT22;8163;50.118;5.342;2023-02-01T05:44:32;4.40;99.90
16118;DHT22;8163;50.118;5.342;2023-02-01T05:46:58;4.40;99.90
16118;DHT22;8163;50.118;5.342;2023-02-01T05:49:25;4.40;99.90
16118;DHT22;8163;50.118;5.342;2023-02-01T05:51:54;4.40;99.90
16118;DHT22;8163;50.118;5.342;2023-02-01T05:54:21;4.40;99.90
16118;DHT22;8163;50.118;5.342;2023-02-01T05:56:48;4.40;99.90
16118;DHT22;8163;50.118;5.342;2023-02-01T05:59:16;4.30;99.90
16118;DHT22;8163;50.118;5.342;2023-02-01T06:01:43;4.40;99.90
16118;DHT22;8163;50.118;5.342;2023-02-01T06:04:09;4.30;99.90
16118;DHT22;8163;50.118;5.342;2023-02-01T06:06:37;4.30;99.90
16118;DHT22;8163;50.118;5.342;2023-02-01T06:09:07;4.30;99.90
16118;DHT22;8163;50.118;5.342;2023-02-01T06:11:34;4.30;99.90
16118;DHT22;8163;50.118;5.342;2023-02-01T06:14:01;4.20;99.90
16118;DHT22;8163;50.118;5.342;2023-02-01T06:16:28;4.20;99.90
16118;DHT22;8163;50.118;5.342;2023-02-01T06:18:55;4.20;99.90
16118;DHT22;8163;50.118;5.342;2023-02-01T06:21:21;4.20;99.90
16118;DHT22;8163;50.118;5.342;2023-02-01T06:23:50;4.20;99.90
16118;DHT22;8163;50.118;5.342;2023-02-01T06:26:18;4.20;99.90
16118;DHT22;8163;50.118;5.342;2023-02-01T06:28:46;4.30;99.90
16118;DHT22;8163;50.118;5.342;2023-02-01T06:31:12;4.20;99.90
16118;DHT22;8163;50.118;5.342;2023-02-01T06:33:39;4.20;99.90
16118;DHT22;8163;50.118;5.342;2023-02-01T06:36:09;4.20;99.90
16118;DHT22;8163;50.118;5.342;2023-02-01T06:38:37;4.20;99.90
16118;DHT22;8163;50.118;5.342;2023-02-01T06:41:05;4.20;99.90
16118;DHT22;8163;50.118;5.342;2023-02-01T06:43:33;4.20;99.90
16118;DHT22;8163;50.118;5.342;2023-02-01T06:46:04;4.10;99.90
16118;DHT22;8163;50.118;5.342;2023-02-01T06:48:31;4.10;99.90
16118;DHT22;8163;50.118;5.342;2023-02-01T06:50:59;4.00;99.90
16118;DHT22;8163;50.118;5.342;2023-02-01T06:53:26;4.10;99.90
16118;DHT22;8163;50.118;5.342;2023-02-01T06:55:54;4.00;99.90
16118;DHT22;8163;50.118;5.342;2023-02-01T06:58:21;4.10;99.90
16118;DHT22;8163;50.118;5.342;2023-02-01T07:00:52;4.00;99.90
16118;DHT22;8163;50.118;5.342;2023-02-01T07:03:19;4.00;99.90
16118;DHT22;8163;50.118;5.342;2023-02-01T07:05:46;4.00;99.90
16118;DHT22;8163;50.118;5.342;2023-02-01T07:08:13;4.00;99.90
16118;DHT22;8163;50.118;5.342;2023-02-01T07:10:41;4.00;99.90
16118;DHT22;8163;50.118;5.342;2023-02-01T07:13:07;4.00;99.90
16118;DHT22;8163;50.118;5.342;2023-02-01T07:15:34;4.00;99.90
16118;DHT22;8163;50.118;5.342;2023-02-01T07:18:03;4.00;99.90
16118;DHT22;8163;50.118;5.342;2023-02-01T07:20:30;4.00;99.90
16118;DHT22;8163;50.118;5.342;2023-02-01T07:22:57;4.00;99.90
16118;DHT22;8163;50.118;5.342;2023-02-01T07:25:24;4.00;99.90
16118;DHT22;8163;50.118;5.342;2023-02-01T07:27:51;4.00;99.90
16118;DHT22;8163;50.118;5.342;2023-02-01T07:30:18;4.00;99.90
16118;DHT22;8163;50.118;5.342;2023-02-01T07:32:45;4.00;99.90
16118;DHT22;8163;50.118;5.342;2023-02-01T07:35:13;4.00;99.90
16118;DHT22;8163;50.118;5.342;2023-02-01T07:37:40;4.00;99.90
16118;DHT22;8163;50.118;5.342;2023-02-01T07:40:09;4.00;99.90
16118;DHT22;8163;50.118;5.342;2023-02-01T07:42:36;3.90;99.90
16118;DHT22;8163;50.118;5.342;2023-02-01T07:45:03;4.00;99.90
16118;DHT22;8163;50.118;5.342;2023-02-01T07:47:32;4.00;99.90
16118;DHT22;8163;50.118;5.342;2023-02-01T07:49:59;4.10;99.90
16118;DHT22;8163;50.118;5.342;2023-02-01T07:52:29;4.00;99.90
16118;DHT22;8163;50.118;5.342;2023-02-01T07:54:56;4.00;99.90
16118;DHT22;8163;50.118;5.342;2023-02-01T07:57:23;4.10;99.90
16118;DHT22;8163;50.118;5.342;2023-02-01T07:59:51;4.00;99.90
16118;DHT22;8163;50.118;5.342;2023-02-01T08:02:35;4.00;99.90
16118;DHT22;8163;50.118;5.342;2023-02-01T08:05:02;4.00;99.90
16118;DHT22;8163;50.118;5.342;2023-02-01T08:07:31;4.10;99.90
16118;DHT22;8163;50.118;5.342;2023-02-01T08:09:58;4.10;99.90
16118;DHT22;8163;50.118;5.342;2023-02-01T08:12:26;4.00;99.90
16118;DHT22;8163;50.118;5.342;2023-02-01T08:14:53;4.00;99.90
16118;DHT22;8163;50.118;5.342;2023-02-01T08:17:22;4.10;99.90
16118;DHT22;8163;50.118;5.342;2023-02-01T08:19:49;4.10;99.90
16118;DHT22;8163;50.118;5.342;2023-02-01T08:22:15;4.10;99.90
16118;DHT22;8163;50.118;5.342;2023-02-01T08:24:44;4.10;99.90
16118;DHT22;8163;50.118;5.342;2023-02-01T08:27:14;4.10;99.90
16118;DHT22;8163;50.118;5.342;2023-02-01T08:29:41;4.10;99.90
16118;DHT22;8163;50.118;5.342;2023-02-01T08:32:09;4.20;99.90
16118;DHT22;8163;50.118;5.342;2023-02-01T08:34:35;4.20;99.90
16118;DHT22;8163;50.118;5.342;2023-02-01T08:37:02;4.20;99.90
16118;DHT22;8163;50.118;5.342;2023-02-01T08:39:30;4.20;99.90
16118;DHT22;8163;50.118;5.342;2023-02-01T08:41:59;4.20;99.90
16118;DHT22;8163;50.118;5.342;2023-02-01T08:44:42;4.20;99.90
16118;DHT22;8163;50.118;5.342;2023-02-01T08:47:09;4.30;99.90
16118;DHT22;8163;50.118;5.342;2023-02-01T08:49:37;4.30;99.90
16118;DHT22;8163;50.118;5.342;2023-02-01T08:52:05;4.20;99.90
16118;DHT22;8163;50.118;5.342;2023-02-01T08:54:31;4.30;99.90
16118;DHT22;8163;50.118;5.342;2023-02-01T08:57:00;4.30;99.90
16118;DHT22;8163;50.118;5.342;2023-02-01T08:59:28;4.30;99.90
16118;DHT22;8163;50.118;5.342;2023-02-01T09:01:55;4.40;99.90
16118;DHT22;8163;50.118;5.342;2023-02-01T09:04:22;4.40;99.90
16118;DHT22;8163;50.118;5.342;2023-02-01T09:06:49;4.50;99.90
16118;DHT22;8163;50.118;5.342;2023-02-01T09:09:16;4.40;99.90
16118;DHT22;8163;50.118;5.342;2023-02-01T09:11:43;4.40;99.90
16118;DHT22;8163;50.118;5.342;2023-02-01T09:14:11;4.40;99.90
16118;DHT22;8163;50.118;5.342;2023-02-01T09:16:38;4.50;99.90
16118;DHT22;8163;50.118;5.342;2023-02-01T09:19:05;4.50;99.90
16118;DHT22;8163;50.118;5.342;2023-02-01T09:21:32;4.50;99.90
16118;DHT22;8163;50.118;5.342;2023-02-01T09:23:59;4.60;99.90
16118;DHT22;8163;50.118;5.342;2023-02-01T09:26:27;4.60;99.90
16118;DHT22;8163;50.118;5.342;2023-02-01T09:28:54;4.60;99.90
16118;DHT22;8163;50.118;5.342;2023-02-01T09:31:22;4.60;99.90
16118;DHT22;8163;50.118;5.342;2023-02-01T09:33:49;4.70;99.90
16118;DHT22;8163;50.118;5.342;2023-02-01T09:36:16;4.70;99.90
16118;DHT22;8163;50.118;5.342;2023-02-01T09:38:45;4.70;99.90
16118;DHT22;8163;50.118;5.342;2023-02-01T09:41:26;4.70;99.90
16118;DHT22;8163;50.118;5.342;2023-02-01T09:44:04;4.70;99.90
16118;DHT22;8163;50.118;5.342;2023-02-01T09:46:35;4.80;99.90
16118;DHT22;8163;50.118;5.342;2023-02-01T09:49:08;4.80;99.90
16118;DHT22;8163;50.118;5.342;2023-02-01T09:51:38;4.70;99.90
16118;DHT22;8163;50.118;5.342;2023-02-01T09:54:09;4.80;99.90
16118;DHT22;8163;50.118;5.342;2023-02-01T09:59:23;4.80;99.90
16118;DHT22;8163;50.118;5.342;2023-02-01T10:01:53;4.80;99.90
16118;DHT22;8163;50.118;5.342;2023-02-01T10:04:21;4.80;99.90
16118;DHT22;8163;50.118;5.342;2023-02-01T10:07:09;4.90;99.90
16118;DHT22;8163;50.118;5.342;2023-02-01T10:09:55;4.90;99.90
16118;DHT22;8163;50.118;5.342;2023-02-01T10:13:04;4.80;99.90
16118;DHT22;8163;50.118;5.342;2023-02-01T10:15:41;4.90;99.90
16118;DHT22;8163;50.118;5.342;2023-02-01T10:18:37;4.90;99.90
16118;DHT22;8163;50.118;5.342;2023-02-01T10:21:12;4.90;99.90
16118;DHT22;8163;50.118;5.342;2023-02-01T10:24:01;4.90;99.90
16118;DHT22;8163;50.118;5.342;2023-02-01T10:26:33;4.90;99.90
16118;DHT22;8163;50.118;5.342;2023-02-01T10:29:04;5.00;99.90
16118;DHT22;8163;50.118;5.342;2023-02-01T10:31:35;5.00;99.90
16118;DHT22;8163;50.118;5.342;2023-02-01T10:34:15;5.10;99.90
16118;DHT22;8163;50.118;5.342;2023-02-01T10:36:52;5.10;99.90
16118;DHT22;8163;50.118;5.342;2023-02-01T10:39:20;5.20;99.90
16118;DHT22;8163;50.118;5.342;2023-02-01T10:41:48;5.40;99.90
16118;DHT22;8163;50.118;5.342;2023-02-01T10:44:16;5.40;99.90
16118;DHT22;8163;50.118;5.342;2023-02-01T10:46:45;5.40;99.90
16118;DHT22;8163;50.118;5.342;2023-02-01T10:49:17;5.30;99.90
16118;DHT22;8163;50.118;5.342;2023-02-01T10:51:47;5.40;99.90
16118;DHT22;8163;50.118;5.342;2023-02-01T10:54:19;5.40;99.90
16118;DHT22;8163;50.118;5.342;2023-02-01T10:56:48;5.50;99.90
16118;DHT22;8163;50.118;5.342;2023-02-01T10:59:16;5.60;99.90
16118;DHT22;8163;50.118;5.342;2023-02-01T11:01:58;5.60;99.90
16118;DHT22;8163;50.118;5.342;2023-02-01T11:04:30;5.60;99.90
16118;DHT22;8163;50.118;5.342;2023-02-01T11:07:06;5.70;99.90
16118;DHT22;8163;50.118;5.342;2023-02-01T11:09:37;5.80;99.90
16118;DHT22;8163;50.118;5.342;2023-02-01T11:12:07;5.90;99.90
16118;DHT22;8163;50.118;5.342;2023-02-01T11:14:47;6.00;99.90
16118;DHT22;8163;50.118;5.342;2023-02-01T11:17:26;6.10;99.90
16118;DHT22;8163;50.118;5.342;2023-02-01T11:19:58;6.30;99.90
16118;DHT22;8163;50.118;5.342;2023-02-01T11:22:27;6.30;99.90
16118;DHT22;8163;50.118;5.342;2023-02-01T11:24:55;6.10;99.90
16118;DHT22;8163;50.118;5.342;2023-02-01T11:27:24;6.00;99.90
16118;DHT22;8163;50.118;5.342;2023-02-01T11:29:55;5.90;99.90
16118;DHT22;8163;50.118;5.342;2023-02-01T11:32:23;5.80;99.90
16118;DHT22;8163;50.118;5.342;2023-02-01T11:34:54;5.80;99.90
16118;DHT22;8163;50.118;5.342;2023-02-01T11:37:25;5.80;99.90
16118;DHT22;8163;50.118;5.342;2023-02-01T11:39:56;5.80;99.90
16118;DHT22;8163;50.118;5.342;2023-02-01T11:42:24;5.90;99.90
16118;DHT22;8163;50.118;5.342;2023-02-01T11:44:51;6.10;99.90
16118;DHT22;8163;50.118;5.342;2023-02-01T11:47:40;6.20;99.90
16118;DHT22;8163;50.118;5.342;2023-02-01T11:50:14;7.60;99.90
16118;DHT22;8163;50.118;5.342;2023-02-01T11:52:52;7.60;99.90
16118;DHT22;8163;50.118;5.342;2023-02-01T11:55:45;8.00;99.90
16118;DHT22;8163;50.118;5.342;2023-02-01T11:58:32;8.70;99.90
16118;DHT22;8163;50.118;5.342;2023-02-01T12:01:15;8.50;99.90
16118;DHT22;8163;50.118;5.342;2023-02-01T12:04:24;8.40;99.90
16118;DHT22;8163;50.118;5.342;2023-02-01T12:07:00;8.20;99.90
16118;DHT22;8163;50.118;5.342;2023-02-01T12:09:40;7.90;99.90
16118;DHT22;8163;50.118;5.342;2023-02-01T12:12:17;7.90;99.90
16118;DHT22;8163;50.118;5.342;2023-02-01T12:15:02;7.90;99.90
16118;DHT22;8163;50.118;5.342;2023-02-01T12:17:51;7.70;99.90
16118;DHT22;8163;50.118;5.342;2023-02-01T12:23:35;7.50;99.90
16118;DHT22;8163;50.118;5.342;2023-02-01T12:26:21;7.40;99.90
16118;DHT22;8163;50.118;5.342;2023-02-01T12:29:18;7.20;99.90
16118;DHT22;8163;50.118;5.342;2023-02-01T12:32:02;7.30;99.90
16118;DHT22;8163;50.118;5.342;2023-02-01T12:37:40;7.10;99.90
16118;DHT22;8163;50.118;5.342;2023-02-01T12:40:28;7.50;99.90
16118;DHT22;8163;50.118;5.342;2023-02-01T12:43:03;8.20;99.90
16118;DHT22;8163;50.118;5.342;2023-02-01T12:45:36;8.10;99.90
16118;DHT22;8163;50.118;5.342;2023-02-01T12:48:18;8.10;99.90
16118;DHT22;8163;50.118;5.342;2023-02-01T12:50:52;8.20;99.90
16118;DHT22;8163;50.118;5.342;2023-02-01T12:53:23;8.00;99.90
16118;DHT22;8163;50.118;5.342;2023-02-01T12:55:54;8.00;99.90
16118;DHT22;8163;50.118;5.342;2023-02-01T12:58:25;7.80;99.90
16118;DHT22;8163;50.118;5.342;2023-02-01T13:00:59;7.70;99.90
16118;DHT22;8163;50.118;5.342;2023-02-01T13:03:34;7.50;99.90
16118;DHT22;8163;50.118;5.342;2023-02-01T13:06:07;7.40;99.90
16118;DHT22;8163;50.118;5.342;2023-02-01T13:08:43;7.40;99.90
16118;DHT22;8163;50.118;5.342;2023-02-01T13:11:13;7.30;99.90
16118;DHT22;8163;50.118;5.342;2023-02-01T13:13:48;7.30;99.90
16118;DHT22;8163;50.118;5.342;2023-02-01T13:16:20;7.40;99.90
16118;DHT22;8163;50.118;5.342;2023-02-01T13:19:02;7.40;99.90
16118;DHT22;8163;50.118;5.342;2023-02-01T13:21:33;7.40;99.90
16118;DHT22;8163;50.118;5.342;2023-02-01T13:24:00;7.30;99.90
16118;DHT22;8163;50.118;5.342;2023-02-01T13:26:28;7.30;99.90
16118;DHT22;8163;50.118;5.342;2023-02-01T13:29:00;7.30;99.90
16118;DHT22;8163;50.118;5.342;2023-02-01T13:34:53;7.20;99.90
16118;DHT22;8163;50.118;5.342;2023-02-01T13:37:33;7.20;99.90
16118;DHT22;8163;50.118;5.342;2023-02-01T13:40:31;7.20;99.90
16118;DHT22;8163;50.118;5.342;2023-02-01T13:43:04;7.20;99.90
16118;DHT22;8163;50.118;5.342;2023-02-01T13:45:36;7.20;99.90
16118;DHT22;8163;50.118;5.342;2023-02-01T13:48:05;7.10;99.90
16118;DHT22;8163;50.118;5.342;2023-02-01T13:50:34;7.20;99.90
16118;DHT22;8163;50.118;5.342;2023-02-01T13:53:13;7.20;99.90
16118;DHT22;8163;50.118;5.342;2023-02-01T13:55:44;7.60;99.90
16118;DHT22;8163;50.118;5.342;2023-02-01T14:36:04;8.60;99.90
16118;DHT22;8163;50.118;5.342;2023-02-01T14:38:32;8.30;99.90
16118;DHT22;8163;50.118;5.342;2023-02-01T14:41:28;8.10;99.90
16118;DHT22;8163;50.118;5.342;2023-02-01T14:44:22;7.90;99.90
16118;DHT22;8163;50.118;5.342;2023-02-01T14:53:06;7.40;99.90
16118;DHT22;8163;50.118;5.342;2023-02-01T14:55:40;7.20;99.90
16118;DHT22;8163;50.118;5.342;2023-02-01T14:58:16;7.10;99.90
16118;DHT22;8163;50.118;5.342;2023-02-01T15:00:51;7.00;99.90
16118;DHT22;8163;50.118;5.342;2023-02-01T15:03:45;7.00;99.90
16118;DHT22;8163;50.118;5.342;2023-02-01T15:06:25;7.00;99.90
16118;DHT22;8163;50.118;5.342;2023-02-01T15:08:57;7.00;99.90
16118;DHT22;8163;50.118;5.342;2023-02-01T15:11:25;6.90;99.90
16118;DHT22;8163;50.118;5.342;2023-02-01T15:13:53;7.00;99.90
16118;DHT22;8163;50.118;5.342;2023-02-01T15:16:23;6.90;99.90
16118;DHT22;8163;50.118;5.342;2023-02-01T15:19:04;6.90;99.90
16118;DHT22;8163;50.118;5.342;2023-02-01T15:21:42;6.90;99.90
16118;DHT22;8163;50.118;5.342;2023-02-01T15:24:13;6.90;99.90
16118;DHT22;8163;50.118;5.342;2023-02-01T15:26:41;6.90;99.90
16118;DHT22;8163;50.118;5.342;2023-02-01T15:29:11;6.90;99.90
16118;DHT22;8163;50.118;5.342;2023-02-01T15:31:40;6.90;99.90
16118;DHT22;8163;50.118;5.342;2023-02-01T15:34:08;6.90;99.90
16118;DHT22;8163;50.118;5.342;2023-02-01T15:36:35;7.00;99.90
16118;DHT22;8163;50.118;5.342;2023-02-01T15:39:22;6.90;99.90
16118;DHT22;8163;50.118;5.342;2023-02-01T15:41:53;6.90;99.90
16118;DHT22;8163;50.118;5.342;2023-02-01T15:44:31;6.90;99.90
16118;DHT22;8163;50.118;5.342;2023-02-01T15:46:59;6.90;99.90
16118;DHT22;8163;50.118;5.342;2023-02-01T15:49:37;6.90;99.90
16118;DHT22;8163;50.118;5.342;2023-02-01T15:52:16;6.90;99.90
16118;DHT22;8163;50.118;5.342;2023-02-01T15:54:49;6.90;99.90
16118;DHT22;8163;50.118;5.342;2023-02-01T15:57:21;6.90;99.90
16118;DHT22;8163;50.118;5.342;2023-02-01T15:59:58;6.90;99.90
16118;DHT22;8163;50.118;5.342;2023-02-01T16:02:29;6.80;99.90
16118;DHT22;8163;50.118;5.342;2023-02-01T16:04:59;6.80;99.90
16118;DHT22;8163;50.118;5.342;2023-02-01T16:07:28;6.70;99.90
16118;DHT22;8163;50.118;5.342;2023-02-01T16:09:58;6.70;99.90
16118;DHT22;8163;50.118;5.342;2023-02-01T16:12:34;6.70;99.90
16118;DHT22;8163;50.118;5.342;2023-02-01T16:15:02;6.60;99.90
16118;DHT22;8163;50.118;5.342;2023-02-01T16:17:28;6.60;99.90
16118;DHT22;8163;50.118;5.342;2023-02-01T16:19:56;6.50;99.90
16118;DHT22;8163;50.118;5.342;2023-02-01T16:22:23;6.50;99.90
16118;DHT22;8163;50.118;5.342;2023-02-01T16:24:50;6.50;99.90
16118;DHT22;8163;50.118;5.342;2023-02-01T16:27:24;6.40;99.90
16118;DHT22;8163;50.118;5.342;2023-02-01T16:29:51;6.40;99.90
16118;DHT22;8163;50.118;5.342;2023-02-01T16:32:22;6.40;99.90
16118;DHT22;8163;50.118;5.342;2023-02-01T16:34:50;6.30;99.90
16118;DHT22;8163;50.118;5.342;2023-02-01T16:37:25;6.30;99.90
16118;DHT22;8163;50.118;5.342;2023-02-01T16:39:53;6.30;99.90
16118;DHT22;8163;50.118;5.342;2023-02-01T16:42:20;6.30;99.90
16118;DHT22;8163;50.118;5.342;2023-02-01T16:44:50;6.30;99.90
16118;DHT22;8163;50.118;5.342;2023-02-01T16:47:20;6.30;99.90
16118;DHT22;8163;50.118;5.342;2023-02-01T16:49:47;6.20;99.90
16118;DHT22;8163;50.118;5.342;2023-02-01T16:52:16;6.20;99.90
16118;DHT22;8163;50.118;5.342;2023-02-01T16:54:44;6.20;99.90
16118;DHT22;8163;50.118;5.342;2023-02-01T16:57:12;6.20;99.90
16118;DHT22;8163;50.118;5.342;2023-02-01T16:59:42;6.10;99.90
16118;DHT22;8163;50.118;5.342;2023-02-01T17:02:12;6.20;99.90
16118;DHT22;8163;50.118;5.342;2023-02-01T17:04:40;6.10;99.90
16118;DHT22;8163;50.118;5.342;2023-02-01T17:07:09;6.20;99.90
16118;DHT22;8163;50.118;5.342;2023-02-01T17:09:37;6.10;99.90
16118;DHT22;8163;50.118;5.342;2023-02-01T17:12:09;6.10;99.90
16118;DHT22;8163;50.118;5.342;2023-02-01T17:14:41;6.10;99.90
16118;DHT22;8163;50.118;5.342;2023-02-01T17:17:10;6.10;99.90
16118;DHT22;8163;50.118;5.342;2023-02-01T17:19:38;6.10;99.90
16118;DHT22;8163;50.118;5.342;2023-02-01T17:22:04;6.10;99.90
16118;DHT22;8163;50.118;5.342;2023-02-01T17:24:32;6.10;99.90
16118;DHT22;8163;50.118;5.342;2023-02-01T17:26:59;6.00;99.90
16118;DHT22;8163;50.118;5.342;2023-02-01T17:29:26;6.10;99.90
16118;DHT22;8163;50.118;5.342;2023-02-01T17:31:55;6.10;99.90